Broadus, Montana
Current Conditions -  °F | °C
As of 1:07 PM on Wednesday 26 Nov 2014 (Local Time) from KMLS Reporting Station
Light Snow Light Snow  
Wind Chill: 20°   Ceiling: 4000
Heat Index: 28°   Visibility: 4mi
Dew Point: 23°   Wind: 8mph
Humidity: 81%   Direction: 80°E
Pressure: 30.26"   Gusts: NA
Location:  45.44°N, 105.41°W
Report Text: KMLS 262007Z AUTO 08007KT 4SM -SN BKN040 OVC049 M02/M05 A3026 RMK AO2 P0000 T10221050
Loading
Personal Weather Stations






























Interactive Weather Map New forecast layout! Learn more

10-Day Weather Forecast

Advertisements
Track Severe Weather on mobile